createdAt,value
2023-06-28T00:00:34.710Z,3.38
2023-06-28T00:03:06.057Z,3.38
2023-06-28T00:05:36.239Z,3.63
2023-06-28T00:10:30.268Z,2.95
2023-06-28T00:12:58.857Z,2.45
2023-06-28T00:15:26.102Z,3.20
2023-06-28T00:17:53.486Z,2.80
2023-06-28T00:20:20.838Z,2.92
2023-06-28T00:22:48.118Z,3.17
2023-06-28T00:25:18.043Z,3.20
2023-06-28T00:27:45.524Z,2.97
2023-06-28T00:30:13.100Z,3.08
2023-06-28T00:32:40.975Z,3.10
2023-06-28T00:35:08.718Z,2.50
2023-06-28T00:37:36.351Z,3.63
2023-06-28T00:40:06.926Z,3.42
2023-06-28T00:42:33.928Z,3.25
2023-06-28T00:45:01.574Z,2.90
2023-06-28T00:47:30.408Z,3.80
2023-06-28T00:50:01.221Z,3.50
2023-06-28T00:52:28.669Z,3.72
2023-06-28T00:54:57.287Z,3.33
2023-06-28T00:57:24.943Z,3.40
2023-06-28T00:59:53.677Z,3.50
2023-06-28T01:02:23.824Z,3.30
2023-06-28T01:04:51.434Z,2.88
2023-06-28T01:07:18.971Z,3.45
2023-06-28T01:09:46.471Z,3.20
2023-06-28T01:12:14.368Z,2.60
2023-06-28T01:14:41.658Z,3.42
2023-06-28T01:17:09.134Z,3.35
2023-06-28T01:19:38.077Z,2.90
2023-06-28T01:22:07.720Z,3.70
2023-06-28T01:24:37.435Z,2.97
2023-06-28T01:27:08.607Z,2.90
2023-06-28T01:29:38.148Z,3.20
2023-06-28T01:32:07.028Z,3.25
2023-06-28T01:34:38.145Z,3.38
2023-06-28T01:37:06.252Z,3.20
2023-06-28T01:39:35.785Z,3.50
2023-06-28T01:42:04.422Z,3.17
2023-06-28T01:44:37.066Z,3.22
2023-06-28T01:47:05.208Z,3.28
2023-06-28T01:50:44.404Z,3.08
2023-06-28T01:53:12.052Z,2.80
2023-06-28T01:55:51.654Z,2.65
2023-06-28T01:58:25.442Z,2.72
2023-06-28T02:00:52.793Z,2.60
2023-06-28T02:03:44.716Z,3.35
2023-06-28T02:06:12.015Z,3.13
2023-06-28T02:08:39.060Z,3.08
2023-06-28T02:11:05.977Z,3.25
2023-06-28T02:13:33.301Z,3.22
2023-06-28T02:16:02.508Z,2.70
2023-06-28T02:18:35.750Z,2.85
2023-06-28T02:21:03.127Z,2.90
2023-06-28T02:23:30.480Z,2.60
2023-06-28T02:25:59.305Z,2.60
2023-06-28T02:28:30.127Z,2.70
2023-06-28T02:30:57.426Z,2.63
2023-06-28T02:33:27.572Z,2.67
2023-06-28T02:35:54.773Z,2.50
2023-06-28T02:38:22.008Z,2.80
2023-06-28T02:40:48.818Z,2.78
2023-06-28T02:43:21.843Z,2.83
2023-06-28T02:45:49.480Z,2.97
2023-06-28T02:48:16.826Z,2.38
2023-06-28T02:50:44.280Z,2.45
2023-06-28T02:53:15.573Z,2.95
2023-06-28T02:55:42.553Z,3.13
2023-06-28T02:58:09.967Z,2.85
2023-06-28T03:00:39.474Z,3.13
2023-06-28T03:03:15.641Z,2.72
2023-06-28T03:05:53.041Z,3.17
2023-06-28T03:15:35.915Z,3.20
2023-06-28T03:21:27.054Z,3.25
2023-06-28T03:23:54.495Z,3.10
2023-06-28T03:26:21.770Z,3.33
2023-06-28T03:28:49.825Z,3.08
2023-06-28T03:31:19.811Z,3.40
2023-06-28T03:33:47.808Z,3.10
2023-06-28T03:36:16.495Z,3.40
2023-06-28T03:38:59.780Z,3.65
2023-06-28T03:41:28.808Z,3.55
2023-06-28T03:43:58.312Z,3.70
2023-06-28T03:46:25.784Z,4.00
2023-06-28T03:48:55.450Z,3.85
2023-06-28T03:51:27.149Z,3.97
2023-06-28T03:53:54.530Z,3.75
2023-06-28T03:56:22.031Z,4.03
2023-06-28T03:58:55.641Z,4.00
2023-06-28T04:01:24.708Z,3.60
2023-06-28T04:07:58.800Z,4.13
2023-06-28T04:10:26.548Z,3.90
2023-06-28T04:12:56.856Z,4.40
2023-06-28T04:15:24.071Z,4.63
2023-06-28T04:17:51.390Z,4.82
2023-06-28T04:20:20.609Z,5.03
2023-06-28T04:22:48.084Z,5.10
2023-06-28T04:25:15.542Z,5.38
2023-06-28T04:27:42.891Z,5.40
2023-06-28T04:30:10.414Z,4.50
2023-06-28T04:32:40.754Z,5.25
2023-06-28T04:35:08.178Z,5.35
2023-06-28T04:37:39.681Z,5.95
2023-06-28T04:40:07.190Z,5.90
2023-06-28T04:42:35.880Z,5.38
2023-06-28T04:45:03.423Z,5.65
2023-06-28T04:47:30.761Z,5.60
2023-06-28T04:49:58.093Z,5.60
2023-06-28T04:52:26.242Z,5.88
2023-06-28T04:54:53.634Z,5.97
2023-06-28T04:57:23.833Z,6.15
2023-06-28T04:59:51.393Z,6.10
2023-06-28T05:02:18.728Z,5.15
2023-06-28T05:04:46.411Z,6.03
2023-06-28T05:07:14.019Z,6.95
2023-06-28T05:09:41.230Z,6.53
2023-06-28T05:12:08.523Z,6.32
2023-06-28T05:14:35.836Z,7.22
2023-06-28T05:17:06.333Z,6.40
2023-06-28T05:19:33.651Z,6.65
2023-06-28T05:22:00.860Z,6.32
2023-06-28T05:24:27.861Z,6.72
2023-06-28T05:26:55.362Z,6.53
2023-06-28T05:29:22.705Z,6.50
2023-06-28T05:31:50.309Z,6.18
2023-06-28T05:34:17.106Z,7.50
2023-06-28T05:36:50.349Z,6.25
2023-06-28T05:39:17.771Z,6.80
2023-06-28T05:41:47.702Z,6.55
2023-06-28T05:44:24.333Z,6.97
2023-06-28T05:47:06.670Z,6.65
2023-06-28T05:50:01.553Z,6.35
2023-06-28T05:55:44.328Z,6.68
2023-06-28T05:58:11.553Z,8.00
2023-06-28T06:00:39.318Z,7.35
2023-06-28T06:03:31.891Z,6.53
2023-06-28T06:09:21.376Z,7.15
2023-06-28T06:12:42.440Z,7.35
2023-06-28T06:20:33.600Z,7.63
2023-06-28T06:23:25.826Z,8.00
2023-06-28T06:25:55.836Z,7.90
2023-06-28T06:28:23.500Z,7.57
2023-06-28T06:30:51.914Z,8.45
2023-06-28T06:33:19.487Z,7.93
2023-06-28T06:35:46.910Z,8.75
2023-06-28T06:38:14.177Z,7.93
2023-06-28T06:40:43.974Z,7.60
2023-06-28T06:43:10.927Z,8.07
2023-06-28T06:45:38.365Z,7.60
2023-06-28T06:48:05.892Z,8.52
2023-06-28T06:50:36.368Z,8.70
2023-06-28T06:53:03.891Z,7.13
2023-06-28T06:55:32.740Z,9.02
2023-06-28T06:58:02.575Z,8.38
2023-06-28T07:00:29.849Z,8.57
2023-06-28T07:02:58.610Z,8.10
2023-06-28T07:05:26.026Z,8.73
2023-06-28T07:07:56.190Z,8.27
2023-06-28T07:10:23.508Z,8.32
2023-06-28T07:12:56.009Z,8.50
2023-06-28T07:15:23.273Z,7.07
2023-06-28T07:17:54.325Z,8.75
2023-06-28T07:20:22.081Z,7.75
2023-06-28T07:22:49.524Z,6.95
2023-06-28T07:25:16.909Z,7.75
2023-06-28T07:27:44.146Z,9.63
2023-06-28T07:30:11.773Z,8.55
2023-06-28T07:32:39.272Z,7.57
2023-06-28T07:35:07.019Z,7.80
2023-06-28T07:37:34.485Z,7.03
2023-06-28T07:40:01.801Z,8.05
2023-06-28T07:42:29.525Z,9.55
2023-06-28T07:44:59.497Z,7.32
2023-06-28T07:47:26.809Z,7.57
2023-06-28T07:49:54.294Z,8.65
2023-06-28T07:52:21.609Z,7.90
2023-06-28T07:54:49.182Z,7.97
2023-06-28T07:57:16.821Z,7.78
2023-06-28T07:59:44.122Z,7.78
2023-06-28T08:02:13.334Z,8.05
2023-06-28T08:04:41.236Z,9.18
2023-06-28T08:07:08.590Z,8.85
2023-06-28T08:09:35.869Z,8.75
2023-06-28T08:12:04.722Z,7.88
2023-06-28T08:14:34.915Z,9.57
2023-06-28T08:20:53.150Z,8.63
2023-06-28T08:23:21.329Z,8.30
2023-06-28T08:30:02.148Z,8.48
2023-06-28T08:33:16.389Z,8.27
2023-06-28T08:35:27.007Z,7.90
2023-06-28T08:38:03.130Z,8.43
2023-06-28T08:40:33.751Z,9.00
2023-06-28T08:43:05.360Z,7.53
2023-06-28T08:45:39.608Z,7.78
2023-06-28T08:48:16.281Z,7.07
2023-06-28T08:51:02.455Z,8.38
2023-06-28T08:53:58.468Z,8.40
2023-06-28T08:56:25.935Z,8.68
2023-06-28T08:59:18.949Z,8.90
2023-06-28T09:01:52.327Z,8.18
2023-06-28T09:07:56.379Z,8.07
2023-06-28T09:10:23.903Z,8.13
2023-06-28T09:13:21.229Z,7.82
2023-06-28T09:15:48.783Z,6.72
2023-06-28T09:18:16.588Z,8.15
2023-06-28T09:21:09.913Z,8.80
2023-06-28T09:23:37.078Z,8.10
2023-06-28T09:26:04.682Z,7.90
2023-06-28T09:28:36.025Z,8.65
2023-06-28T09:31:07.624Z,7.90
2023-06-28T09:33:37.828Z,8.30
2023-06-28T09:36:14.388Z,8.05
2023-06-28T09:38:48.026Z,7.90
2023-06-28T09:41:15.834Z,8.10
2023-06-28T09:46:25.487Z,6.95
2023-06-28T09:48:53.008Z,7.60
2023-06-28T09:51:20.766Z,7.05
2023-06-28T09:54:14.754Z,7.25
2023-06-28T09:56:44.122Z,7.35
2023-06-28T09:59:19.889Z,6.47
2023-06-28T10:04:57.581Z,7.90
2023-06-28T10:05:18.225Z,6.45
2023-06-28T10:07:25.805Z,7.05
2023-06-28T10:09:53.845Z,7.70
2023-06-28T10:12:22.833Z,6.95
2023-06-28T10:15:00.314Z,7.32
2023-06-28T10:17:32.810Z,7.43
2023-06-28T10:20:02.014Z,8.30
2023-06-28T10:22:29.305Z,8.45
2023-06-28T10:24:58.127Z,8.02
2023-06-28T10:27:26.447Z,7.90
2023-06-28T10:32:50.687Z,8.55
2023-06-28T10:35:17.691Z,8.05
2023-06-28T10:37:45.097Z,7.03
2023-06-28T10:45:04.263Z,7.32
2023-06-28T10:48:04.647Z,8.43
2023-06-28T10:51:02.725Z,8.73
2023-06-28T10:54:17.124Z,9.18
2023-06-28T11:04:50.851Z,9.65
2023-06-28T11:10:18.285Z,10.32
2023-06-28T11:12:49.353Z,10.27
2023-06-28T11:15:29.186Z,10.82
2023-06-28T11:18:07.638Z,10.25
2023-06-28T11:21:06.238Z,10.48
2023-06-28T11:23:38.651Z,10.38
2023-06-28T11:28:45.646Z,11.48
2023-06-28T11:31:18.617Z,10.80
2023-06-28T11:33:49.010Z,12.23
2023-06-28T11:36:16.636Z,11.32
2023-06-28T11:38:53.661Z,12.85
2023-06-28T11:41:49.191Z,12.20
2023-06-28T11:44:25.513Z,11.88
2023-06-28T11:47:00.917Z,12.90
2023-06-28T11:49:28.231Z,11.75
2023-06-28T11:51:57.031Z,12.50
2023-06-28T11:54:25.929Z,11.52
2023-06-28T11:56:53.358Z,12.10
2023-06-28T11:59:22.787Z,12.15
2023-06-28T12:02:08.456Z,12.82
2023-06-28T12:05:05.680Z,11.35
2023-06-28T12:07:37.202Z,9.65
2023-06-28T12:10:34.395Z,12.10
2023-06-28T12:13:01.430Z,10.57
2023-06-28T12:15:28.655Z,12.90
2023-06-28T12:17:56.002Z,13.32
2023-06-28T12:20:23.996Z,12.80
2023-06-28T12:22:51.537Z,13.25
2023-06-28T12:25:32.979Z,13.95
2023-06-28T12:28:08.485Z,12.73
2023-06-28T12:30:35.839Z,14.43
2023-06-28T12:33:09.766Z,12.57
2023-06-28T12:35:37.062Z,13.57
2023-06-28T12:38:04.414Z,12.85
2023-06-28T12:40:36.721Z,14.85
2023-06-28T12:43:19.185Z,13.60
2023-06-28T12:45:54.797Z,13.93
2023-06-28T12:48:23.377Z,13.90
2023-06-28T12:50:53.257Z,12.73
2023-06-28T12:56:33.192Z,12.48
2023-06-28T12:59:00.756Z,11.93
2023-06-28T13:01:28.185Z,11.77
2023-06-28T13:03:56.364Z,11.55
2023-06-28T13:06:24.175Z,12.10
2023-06-28T13:08:53.340Z,10.55
2023-06-28T13:11:20.875Z,11.45
2023-06-28T13:13:48.313Z,11.20
2023-06-28T13:16:15.585Z,11.13
2023-06-28T13:18:43.248Z,12.57
2023-06-28T13:21:10.729Z,12.48
2023-06-28T13:23:38.106Z,12.85
2023-06-28T13:26:07.964Z,11.75
2023-06-28T13:28:37.265Z,11.10
2023-06-28T13:31:04.258Z,11.55
2023-06-28T13:33:31.699Z,12.68
2023-06-28T13:35:58.968Z,12.60
2023-06-28T13:38:26.350Z,12.07
2023-06-28T13:41:19.260Z,12.75
2023-06-28T13:46:28.017Z,11.65
2023-06-28T13:48:55.380Z,12.48
2023-06-28T13:51:23.519Z,11.95
2023-06-28T13:53:51.083Z,13.13
2023-06-28T13:56:18.662Z,12.00
2023-06-28T13:58:45.668Z,13.00
2023-06-28T14:01:15.965Z,12.57
2023-06-28T14:03:43.506Z,12.38
2023-06-28T14:06:13.934Z,14.55
2023-06-28T14:08:42.392Z,13.98
2023-06-28T14:11:17.067Z,12.80
2023-06-28T14:14:06.652Z,13.32
2023-06-28T14:16:32.781Z,13.98
2023-06-28T14:19:15.573Z,14.82
2023-06-28T14:21:42.673Z,13.02
2023-06-28T14:24:12.203Z,13.43
2023-06-28T14:26:39.549Z,14.68
2023-06-28T14:29:07.250Z,14.02
2023-06-28T14:31:59.902Z,13.07
2023-06-28T14:34:33.023Z,13.07
2023-06-28T14:37:25.819Z,14.70
2023-06-28T14:39:55.694Z,13.50
2023-06-28T14:42:23.063Z,12.93
2023-06-28T14:44:50.456Z,12.52
2023-06-28T14:47:18.024Z,13.73
2023-06-28T14:49:54.403Z,12.05
2023-06-28T14:52:21.722Z,12.20
2023-06-28T15:04:19.520Z,12.27
2023-06-28T15:06:52.338Z,11.20
2023-06-28T15:10:34.165Z,12.40
2023-06-28T15:17:30.071Z,11.98
2023-06-28T15:20:06.720Z,12.18
2023-06-28T15:22:34.030Z,11.32
2023-06-28T15:25:01.768Z,11.13
2023-06-28T15:27:53.028Z,10.65
2023-06-28T15:30:26.342Z,12.32
2023-06-28T15:32:54.151Z,14.23
2023-06-28T15:35:22.008Z,15.93
2023-06-28T15:37:49.455Z,13.70
2023-06-28T15:40:19.457Z,13.82
2023-06-28T15:43:08.538Z,13.18
2023-06-28T15:45:54.377Z,12.05
2023-06-28T15:48:21.909Z,10.63
2023-06-28T15:56:34.421Z,11.13
2023-06-28T15:59:02.379Z,13.05
2023-06-28T16:05:49.190Z,11.77
2023-06-28T16:08:16.555Z,11.93
2023-06-28T16:10:43.459Z,11.20
2023-06-28T16:13:14.790Z,13.02
2023-06-28T16:25:46.169Z,13.70
2023-06-28T16:32:36.486Z,12.25
2023-06-28T16:35:03.846Z,11.75
2023-06-28T16:37:36.970Z,10.65
2023-06-28T16:40:04.420Z,10.90
2023-06-28T16:42:31.797Z,11.65
2023-06-28T16:57:24.293Z,11.65
2023-06-28T17:01:19.472Z,12.57
2023-06-28T17:04:11.425Z,12.52
2023-06-28T17:07:04.184Z,11.63
2023-06-28T17:14:10.353Z,11.13
2023-06-28T17:17:04.776Z,10.75
2023-06-28T17:20:24.941Z,11.32
2023-06-28T17:23:46.321Z,11.77
2023-06-28T17:26:38.806Z,12.38
2023-06-28T17:29:12.347Z,11.85
2023-06-28T17:31:49.041Z,10.95
2023-06-28T17:34:17.867Z,11.30
2023-06-28T17:37:12.442Z,12.57
2023-06-28T17:42:06.876Z,12.55
2023-06-28T17:44:33.813Z,10.35
2023-06-28T17:50:37.401Z,10.95
2023-06-28T17:53:27.736Z,10.25
2023-06-28T17:56:19.644Z,11.38
2023-06-28T17:59:12.944Z,14.07
2023-06-28T18:02:05.848Z,12.20
2023-06-28T18:04:58.414Z,14.07
2023-06-28T18:10:22.647Z,12.43
2023-06-28T18:16:42.081Z,11.13
2023-06-28T18:19:11.600Z,12.95
2023-06-28T18:21:45.992Z,11.48
2023-06-28T18:24:15.981Z,11.82
2023-06-28T18:27:11.019Z,12.35
2023-06-28T18:29:40.385Z,11.80
2023-06-28T18:32:08.255Z,10.82
2023-06-28T18:34:35.708Z,11.45
2023-06-28T18:37:15.398Z,12.05
2023-06-28T18:44:11.433Z,11.02
2023-06-28T18:46:41.701Z,11.02
2023-06-28T18:49:30.397Z,11.20
2023-06-28T18:51:57.775Z,10.02
2023-06-28T18:54:25.245Z,10.82
2023-06-28T18:56:52.606Z,10.50
2023-06-28T18:59:19.943Z,11.20
2023-06-28T19:10:26.578Z,11.40
2023-06-28T19:13:27.944Z,10.88
2023-06-28T19:16:20.447Z,10.27
2023-06-28T19:18:47.994Z,11.13
2023-06-28T19:29:07.427Z,10.25
2023-06-28T19:31:38.225Z,10.02
2023-06-28T19:38:23.043Z,9.90
2023-06-28T19:40:50.461Z,9.75
2023-06-28T19:43:20.168Z,9.63
2023-06-28T19:46:12.572Z,9.60
2023-06-28T19:55:10.280Z,9.40
2023-06-28T19:57:37.801Z,8.70
2023-06-28T20:00:31.602Z,8.68
2023-06-28T20:03:24.202Z,7.93
2023-06-28T20:05:54.340Z,7.90
2023-06-28T20:08:21.719Z,8.20
2023-06-28T20:10:51.849Z,7.97
2023-06-28T20:13:19.241Z,7.93
2023-06-28T20:15:48.146Z,7.22
2023-06-28T20:18:15.622Z,7.82
2023-06-28T20:20:45.649Z,7.88
2023-06-28T20:23:13.301Z,7.88
2023-06-28T20:25:41.771Z,7.95
2023-06-28T20:28:09.380Z,8.38
2023-06-28T20:30:36.905Z,7.72
2023-06-28T20:33:03.982Z,8.38
2023-06-28T20:35:32.086Z,7.78
2023-06-28T20:37:59.299Z,8.32
2023-06-28T20:40:26.932Z,8.30
2023-06-28T20:42:54.251Z,8.40
2023-06-28T20:45:22.555Z,8.10
2023-06-28T20:47:51.086Z,8.75
2023-06-28T20:50:21.121Z,9.23
2023-06-28T20:55:17.878Z,7.82
2023-06-28T20:57:48.141Z,8.35
2023-06-28T21:00:16.181Z,9.70
2023-06-28T21:02:43.355Z,8.77
2023-06-28T21:05:12.848Z,7.90
2023-06-28T21:07:42.541Z,8.38
2023-06-28T21:10:10.278Z,8.43
2023-06-28T21:12:37.985Z,8.65
2023-06-28T21:17:52.226Z,8.20
2023-06-28T21:20:19.685Z,7.97
2023-06-28T21:24:11.130Z,8.15
2023-06-28T21:26:29.237Z,8.48
2023-06-28T21:42:55.664Z,7.78
2023-06-28T21:45:23.434Z,8.68
2023-06-28T21:52:17.474Z,7.43
2023-06-28T21:54:45.268Z,7.95
2023-06-28T21:57:18.583Z,7.75
2023-06-28T22:00:01.798Z,7.80
2023-06-28T22:02:29.577Z,7.75
2023-06-28T22:04:57.132Z,7.93
2023-06-28T22:07:26.806Z,8.30
2023-06-28T22:09:55.214Z,8.10
2023-06-28T22:12:27.113Z,8.20
2023-06-28T22:14:59.854Z,7.40
2023-06-28T22:17:35.191Z,7.75
2023-06-28T22:20:13.020Z,7.30
2023-06-28T22:22:40.478Z,8.10
2023-06-28T22:25:08.068Z,8.57
2023-06-28T22:27:35.489Z,8.05
2023-06-28T22:30:06.416Z,8.23
2023-06-28T22:32:34.263Z,7.85
2023-06-28T22:35:01.625Z,8.00
2023-06-28T22:37:28.988Z,8.07
2023-06-28T22:39:56.445Z,7.57
2023-06-28T22:42:36.599Z,8.77
2023-06-28T22:45:05.707Z,8.30
2023-06-28T22:50:43.794Z,8.05
2023-06-28T22:53:11.916Z,8.57
2023-06-28T22:55:39.506Z,8.30
2023-06-28T22:58:07.215Z,7.90
2023-06-28T23:00:34.698Z,9.10
2023-06-28T23:03:02.314Z,8.43
2023-06-28T23:05:29.857Z,8.27
2023-06-28T23:07:57.749Z,8.48
2023-06-28T23:10:27.524Z,8.50
2023-06-28T23:15:23.883Z,8.68
2023-06-28T23:17:51.235Z,7.15
2023-06-28T23:20:18.675Z,8.43
2023-06-28T23:22:46.357Z,7.93
2023-06-28T23:25:14.403Z,7.93
2023-06-28T23:27:49.584Z,7.80
2023-06-28T23:30:18.669Z,9.13
2023-06-28T23:32:50.402Z,8.15
2023-06-28T23:35:21.548Z,8.88
2023-06-28T23:37:49.484Z,8.18
2023-06-28T23:40:16.910Z,8.77
2023-06-28T23:42:45.150Z,8.88
2023-06-28T23:45:12.146Z,8.63
2023-06-28T23:47:40.661Z,8.30
2023-06-28T23:50:09.914Z,8.10
2023-06-28T23:52:37.824Z,8.80
2023-06-28T23:55:05.403Z,8.60
2023-06-28T23:57:34.943Z,9.02
